This is the latest recevied weather packets stored in our database for station/object W4CPD. If no packets are shown the sender has not sent any weather packets the latest 10 day(s).
| Time | Temp. | Humidity | Pressure | Rain* | Wind** | Luminosity | Snow |
|---|---|---|---|---|---|---|---|
| 1777792213 | 9.44° C | 91% | 1019.7 hPa | 0.25 mm | - | - | - |
| 1777791013 | 10° C | 91% | 1019.5 hPa | 0.25 mm | - | - | - |
| 1777790729 | 10° C | 91% | 1019.6 hPa | 0.51 mm | - | - | - |
| 1777790114 | 10° C | 90% | 1019.5 hPa | 0.51 mm | - | - | - |
| 1777789512 | 10° C | 91% | 1019.5 hPa | 0.25 mm | - | - | - |
| 1777788928 | 10° C | 90% | 1019.6 hPa | 0.25 mm | - | - | - |
| 1777788048 | 10.56° C | 90% | 1019.5 hPa | 0.25 mm | - | - | - |
| 1777787414 | 10.56° C | 90% | 1019.5 hPa | 0.51 mm | - | - | - |
| 1777784428 | 11.11° C | 89% | 1019.3 hPa | 0.25 mm | - | - | - |
| 1777783816 | 11.11° C | 87% | 1019.2 hPa | 0.25 mm | - | - | - |
| 1777783528 | 11.11° C | 87% | 1019.1 hPa | 0.25 mm | - | - | - |
| 1777782014 | 11.67° C | 86% | 1019.1 hPa | 0.51 mm | - | - | - |
| 1777780828 | 11.67° C | 85% | 1018.9 hPa | 0.51 mm | - | - | - |
| 1777780513 | 11.67° C | 84% | 1019 hPa | 0.51 mm | - | - | - |
| 1777780216 | 12.22° C | 84% | 1018.8 hPa | 0.51 mm | - | - | - |
| 1777776614 | 13.33° C | 77% | 1018.3 hPa | 0.51 mm | - | - | - |
| 1777775429 | 13.89° C | 74% | 1018.1 hPa | 0.51 mm | - | - | - |
| 1777774214 | 14.44° C | 70% | 1017.9 hPa | 0.51 mm | - | - | - |
| 1777772731 | 16.11° C | 65% | 1017.5 hPa | 0.51 mm | - | - | - |
| 1777769712 | 17.78° C | 55% | 1017 hPa | 0.76 mm | - | - | - |
| 1777769413 | 17.78° C | 55% | 1016.7 hPa | 0.51 mm | - | - | - |
| 1777767014 | 19.44° C | 53% | 1015.9 hPa | 0.76 mm | - | - | - |
| 1777765217 | 20° C | 51% | 1015.3 hPa | 0.76 mm | - | - | - |
| 1777764628 | 21.11° C | 53% | 1015.1 hPa | 0.76 mm | - | - | - |
| 1777763415 | 21.67° C | 52% | 1015 hPa | 0.76 mm | - | - | - |
* Rain latest hour (hover to see other rain measurements)
** Current wind speed in m/s (hover to see current wind gust speed)